Time;durP1;ratioP1;P1;durP2;ratioP2;P2;SDS_P1;SDS_P2;PMS_P1;PMS_P2;Temp;Humidity;BMP_temperature;BMP_pressure;BME280_temperature;BME280_humidity;BME280_pressure;Samples;Min_cycle;Max_cycle;Signal;HPM_P1;HPM_P2
2023/03/29 09:17:18;;;;;;;8.55;1.90;;;;;;;10.10;61.57;96751.38;2101024;27;20560;-61
2023/03/29 09:18:38;;;;;;;5.32;1.30;;;;;;;10.28;61.57;96756.75;2095810;28;20184;-61
2023/03/29 09:19:47;;;;;;;4.30;1.40;;;;;;;10.44;61.29;96754.38;2093944;28;20211;-62
2023/03/29 09:20:58;;;;;;;2.78;1.20;;;;;;;10.90;60.15;96754.97;2083189;28;20220;-62
2023/03/29 09:22:12;;;;;;;3.85;1.40;;;;;;;10.99;60.30;96745.88;2078899;28;20197;-62
2023/03/29 09:23:43;;;;;;;4.28;1.40;;;;;;;11.15;59.36;96760.88;2081480;28;20216;-62
2023/03/29 09:24:50;;;;;;;4.40;1.45;;;;;;;10.87;58.16;96754.25;2069266;28;20763;-60
2023/03/29 09:25:55;;;;;;;4.40;1.38;;;;;;;11.02;58.57;96755.34;2078121;28;20217;-60
2023/03/29 09:27:09;;;;;;;3.38;1.58;;;;;;;11.06;58.23;96749.09;2077112;28;20204;-60
2023/03/29 09:28:20;;;;;;;5.57;1.30;;;;;;;11.03;59.20;96751.84;2065361;28;20198;-60
2023/03/29 09:29:44;;;;;;;1.88;1.00;;;;;;;10.94;59.82;96745.25;2062184;28;20819;-60
2023/03/29 09:31:00;;;;;;;3.90;1.45;;;;;;;11.32;58.69;96740.03;2074022;28;20631;-60
2023/03/29 09:32:12;;;;;;;3.05;1.63;;;;;;;11.12;58.68;96735.72;2069724;28;20276;-60
2023/03/29 09:33:26;;;;;;;3.42;1.50;;;;;;;11.08;58.17;96735.03;2068513;28;20225;-60
2023/03/29 09:34:53;;;;;;;9.40;1.73;;;;;;;11.29;58.38;96737.59;2068185;28;20201;-60
2023/03/29 09:36:03;;;;;;;8.02;1.88;;;;;;;11.72;57.55;96748.66;2071100;28;20304;-60
2023/03/29 09:37:14;;;;;;;5.72;1.60;;;;;;;11.69;56.84;96746.16;2074316;28;20228;-60
2023/03/29 09:38:17;;;;;;;5.60;1.50;;;;;;;11.81;56.27;96739.50;2070903;28;20202;-60
2023/03/29 09:39:22;;;;;;;3.30;1.63;;;;;;;11.62;56.14;96746.53;2071582;28;20280;-60
2023/03/29 09:40:36;;;;;;;3.50;1.20;;;;;;;12.00;55.38;96741.25;2071839;28;20676;-60
2023/03/29 09:41:42;;;;;;;4.55;1.40;;;;;;;12.39;55.09;96741.06;2069075;28;20205;-60
2023/03/29 09:42:48;;;;;;;2.65;1.10;;;;;;;12.27;54.92;96746.91;2070419;28;20198;-60
2023/03/29 09:43:50;;;;;;;3.90;1.30;;;;;;;11.99;55.98;96745.66;2067531;28;20208;-60
2023/03/29 09:45:00;;;;;;;2.60;1.30;;;;;;;12.15;56.03;96751.00;2071096;28;20202;-60
2023/03/29 09:46:20;;;;;;;3.03;1.30;;;;;;;11.98;54.84;96746.56;2070625;28;20325;-60
2023/03/29 09:47:27;;;;;;;2.90;1.70;;;;;;;11.95;55.40;96756.31;2070732;28;20193;-60
2023/03/29 09:48:33;;;;;;;2.80;1.52;;;;;;;12.16;54.71;96747.44;2069574;28;20207;-60
2023/03/29 09:49:38;;;;;;;4.93;1.48;;;;;;;12.33;55.10;96740.50;2075452;28;20208;-61
2023/03/29 09:50:43;;;;;;;4.95;1.65;;;;;;;12.27;54.95;96741.69;2076914;28;20232;-60
2023/03/29 09:51:48;;;;;;;2.45;1.15;;;;;;;12.14;55.59;96740.56;2070890;28;20731;-61
2023/03/29 09:52:49;;;;;;;4.35;1.83;;;;;;;11.85;55.78;96735.81;2070814;28;20198;-60
2023/03/29 09:53:51;;;;;;;7.30;1.65;;;;;;;11.69;55.30;96733.09;2070930;28;20657;-60
2023/03/29 09:54:53;;;;;;;5.07;1.70;;;;;;;11.80;54.92;96750.91;2072373;28;20197;-60
2023/03/29 09:55:54;;;;;;;15.55;1.50;;;;;;;12.02;55.07;96747.28;2069698;28;20218;-60
2023/03/29 09:56:57;;;;;;;2.85;1.23;;;;;;;12.05;55.59;96734.06;2070158;28;20633;-60
2023/03/29 09:58:31;;;;;;;3.05;1.50;;;;;;;11.99;55.72;96739.59;2066880;28;20209;-60
2023/03/29 09:59:34;;;;;;;4.45;1.60;;;;;;;12.08;55.09;96731.28;2059684;28;20206;-60
2023/03/29 10:00:37;;;;;;;4.15;1.40;;;;;;;11.93;55.55;96718.00;2066922;28;20586;-60
2023/03/29 10:01:44;;;;;;;3.58;1.60;;;;;;;11.92;55.16;96731.13;2070998;28;20208;-61
2023/03/29 10:02:53;;;;;;;10.38;1.52;;;;;;;12.09;54.78;96725.94;2072173;28;20197;-61
2023/03/29 10:03:55;;;;;;;7.82;1.67;;;;;;;12.64;54.73;96731.94;2063445;28;20601;-61
2023/03/29 10:05:02;;;;;;;2.38;1.38;;;;;;;12.50;53.83;96737.88;2063179;28;20248;-60
2023/03/29 10:06:08;;;;;;;3.05;1.45;;;;;;;12.38;54.16;96735.91;2064486;28;20219;-61
2023/03/29 10:07:19;;;;;;;4.63;1.45;;;;;;;12.25;55.01;96720.81;2069984;28;20596;-61
2023/03/29 10:08:29;;;;;;;3.95;1.23;;;;;;;12.33;54.57;96732.66;2071314;28;20202;-60
2023/03/29 10:09:31;;;;;;;7.07;1.73;;;;;;;12.32;54.68;96734.44;2073554;28;20197;-60
2023/03/29 10:10:34;;;;;;;5.22;1.70;;;;;;;12.62;53.95;96731.19;2067916;28;20247;-60
2023/03/29 10:11:37;;;;;;;4.63;1.65;;;;;;;12.81;54.03;96736.31;2070610;28;20708;-60
2023/03/29 10:12:40;;;;;;;4.57;1.60;;;;;;;12.73;53.49;96730.63;2073206;28;21106;-61
2023/03/29 10:13:46;;;;;;;3.00;1.33;;;;;;;12.76;53.80;96732.22;2069688;28;20299;-60
2023/03/29 10:14:50;;;;;;;3.13;1.50;;;;;;;13.00;53.56;96735.34;2072118;28;20200;-60
2023/03/29 10:16:06;;;;;;;2.92;1.33;;;;;;;12.90;53.14;96730.59;2069098;28;20252;-60
2023/03/29 10:17:23;;;;;;;6.65;1.25;;;;;;;13.00;52.82;96728.34;2068864;28;20243;-60
2023/03/29 10:18:26;;;;;;;5.20;1.65;;;;;;;13.14;52.15;96735.47;2068680;28;20316;-61
2023/03/29 10:19:34;;;;;;;4.60;1.63;;;;;;;13.37;51.63;96726.38;2067458;28;20195;-60
2023/03/29 10:20:38;;;;;;;5.13;1.80;;;;;;;13.38;51.31;96695.75;2069495;28;20325;-60
2023/03/29 10:21:41;;;;;;;3.75;1.70;;;;;;;13.88;50.75;96728.81;2072453;28;20201;-60
2023/03/29 10:22:55;;;;;;;2.67;1.23;;;;;;;14.26;49.85;96726.69;2069446;28;20194;-61
2023/03/29 10:23:58;;;;;;;3.75;1.63;;;;;;;14.72;49.26;96724.00;2070525;28;20219;-60
2023/03/29 10:24:59;;;;;;;4.03;1.50;;;;;;;15.27;47.95;96729.47;2069592;28;20908;-60
2023/03/29 10:26:05;;;;;;;4.18;2.08;;;;;;;15.26;48.15;96725.13;2069378;28;20678;-61
2023/03/29 10:27:10;;;;;;;4.10;1.35;;;;;;;14.86;48.16;96731.91;2070631;28;20201;-61
2023/03/29 10:28:17;;;;;;;3.70;1.35;;;;;;;14.54;49.06;96726.75;2066465;28;20194;-61
2023/03/29 10:29:18;;;;;;;6.97;1.75;;;;;;;14.36;49.96;96720.00;2066217;28;20252;-62
2023/03/29 10:30:22;;;;;;;4.50;1.38;;;;;;;14.38;50.30;96723.34;2066323;28;20194;-62
2023/03/29 10:31:27;;;;;;;3.53;1.58;;;;;;;14.21;50.47;96724.34;2063835;28;20674;-62
2023/03/29 10:32:33;;;;;;;2.67;0.93;;;;;;;14.30;49.86;96723.81;2065421;28;20213;-63
2023/03/29 10:33:35;;;;;;;8.43;1.83;;;;;;;15.47;48.79;96717.69;2063705;28;20229;-63
2023/03/29 10:34:37;;;;;;;4.10;1.65;;;;;;;16.83;45.90;96716.69;2065432;28;20202;-63
2023/03/29 10:35:42;;;;;;;2.60;1.30;;;;;;;17.16;44.74;96709.22;2067454;28;20265;-62
2023/03/29 10:36:53;;;;;;;3.72;1.30;;;;;;;16.92;45.21;96702.91;2063815;28;20190;-62
2023/03/29 10:37:58;;;;;;;2.78;1.15;;;;;;;17.26;43.83;96708.47;2065216;28;20206;-62
2023/03/29 10:39:02;;;;;;;4.68;1.73;;;;;;;17.08;43.65;96710.59;2066977;28;20256;-62
2023/03/29 10:40:20;;;;;;;3.10;1.27;;;;;;;17.71;43.25;96713.22;2063497;28;20195;-62
2023/03/29 10:41:23;;;;;;;3.95;1.70;;;;;;;17.75;43.51;96719.09;2063169;28;20305;-62
2023/03/29 10:42:25;;;;;;;4.32;1.40;;;;;;;17.54;43.86;96711.78;2064695;28;20206;-62
2023/03/29 10:43:49;;;;;;;4.38;1.70;;;;;;;17.55;44.14;96716.09;2064857;28;20193;-62
2023/03/29 10:44:54;;;;;;;3.70;1.60;;;;;;;17.59;42.92;96709.63;2068754;28;20201;-62
2023/03/29 10:46:06;;;;;;;6.20;2.08;;;;;;;16.72;45.31;96700.78;2064560;28;20701;-62
2023/03/29 10:47:11;;;;;;;4.00;1.25;;;;;;;16.30;46.31;96714.13;2064856;28;20289;-62
2023/03/29 10:48:16;;;;;;;4.53;1.58;;;;;;;16.02;46.23;96708.03;2065289;28;20206;-62
2023/03/29 10:49:20;;;;;;;3.85;1.20;;;;;;;15.80;46.29;96711.22;2065185;28;20202;-62
2023/03/29 10:50:21;;;;;;;2.45;1.35;;;;;;;15.40;47.33;96709.34;2066007;28;20206;-62
2023/03/29 10:51:26;;;;;;;4.70;1.20;;;;;;;15.27;47.93;96714.50;2066351;28;20556;-62
2023/03/29 10:52:28;;;;;;;7.00;1.40;;;;;;;15.29;48.58;96704.75;2064114;28;20209;-62
2023/03/29 10:53:32;;;;;;;3.10;1.13;;;;;;;15.50;48.15;96706.97;2066831;28;20209;-62
2023/03/29 10:54:35;;;;;;;2.83;1.67;;;;;;;16.06;47.40;96704.28;2064822;28;20210;-62
2023/03/29 10:55:48;;;;;;;2.38;1.27;;;;;;;16.52;46.71;96695.09;2062879;28;20226;-63
2023/03/29 10:56:57;;;;;;;5.07;1.65;;;;;;;17.55;44.92;96696.78;2063818;28;20367;-63
2023/03/29 10:58:27;;;;;;;2.25;1.30;;;;;;;16.77;44.88;96690.75;2064604;28;20198;-62
2023/03/29 10:59:31;;;;;;;3.00;1.50;;;;;;;17.23;44.62;96692.00;2063316;28;20683;-62
2023/03/29 11:00:47;;;;;;;3.67;1.67;;;;;;;18.33;43.27;96684.06;2063501;28;20230;-62
2023/03/29 11:02:16;;;;;;;10.38;1.42;;;;;;;18.80;42.94;96691.97;2066952;28;20244;-62
2023/03/29 11:03:21;;;;;;;4.75;1.70;;;;;;;17.60;43.71;96690.22;2064481;28;20549;-62
2023/03/29 11:04:55;;;;;;;5.25;1.35;;;;;;;17.47;44.58;96684.13;2066167;28;20199;-62
2023/03/29 11:06:09;;;;;;;2.83;1.50;;;;;;;16.94;45.19;96669.38;2060696;28;20222;-62
2023/03/29 11:07:25;;;;;;;5.07;1.20;;;;;;;17.19;44.92;96686.13;2061478;28;20377;-62
2023/03/29 11:08:41;;;;;;;2.75;1.27;;;;;;;16.87;46.61;96678.63;2060921;28;20201;-62
2023/03/29 11:10:12;;;;;;;4.55;1.75;;;;;;;16.37;45.56;96675.88;2064284;28;20202;-62
2023/03/29 11:11:35;;;;;;;4.18;1.52;;;;;;;16.76;45.87;96674.09;2063290;28;20241;-62
2023/03/29 11:12:45;;;;;;;5.43;1.85;;;;;;;16.09;47.39;96676.91;2062269;28;20651;-62
2023/03/29 11:13:47;;;;;;;3.78;1.63;;;;;;;15.83;47.67;96675.03;2065813;28;21121;-62
2023/03/29 11:15:10;;;;;;;4.10;1.58;;;;;;;15.64;47.87;96685.03;2065090;28;20237;-62
2023/03/29 11:16:36;;;;;;;3.15;1.10;;;;;;;15.81;48.09;96676.91;2073543;28;20217;-62
2023/03/29 11:18:06;;;;;;;11.13;1.38;;;;;;;16.04;46.41;96681.63;2067881;28;20230;-62
2023/03/29 11:19:24;;;;;;;9.30;1.50;;;;;;;16.02;46.04;96675.59;2061103;28;20244;-62
2023/03/29 11:20:37;;;;;;;3.13;1.60;;;;;;;16.14;46.23;96674.78;2065721;28;20202;-62
2023/03/29 11:22:02;;;;;;;3.58;1.38;;;;;;;16.02;46.75;96680.88;2067125;28;20264;-63
2023/03/29 11:23:15;;;;;;;3.03;1.45;;;;;;;16.28;46.29;96681.78;2064985;28;20677;-62
2023/03/29 11:24:46;;;;;;;4.70;1.52;;;;;;;15.87;46.39;96685.34;2070204;28;20290;-62
2023/03/29 11:26:12;;;;;;;12.13;7.03;;;;;;;15.57;47.49;96681.13;2062950;28;20585;-61
2023/03/29 11:27:46;;;;;;;20.83;12.10;;;;;;;15.22;48.00;96684.19;2066805;28;20205;-62
2023/03/29 11:28:56;;;;;;;9.70;4.70;;;;;;;15.38;48.31;96682.28;2064023;28;20242;-62
2023/03/29 11:30:12;;;;;;;25.48;14.65;;;;;;;15.43;47.94;96682.00;2063758;28;20277;-62
2023/03/29 11:31:22;;;;;;;4.72;2.28;;;;;;;15.60;47.97;96688.78;2065318;28;20222;-62
2023/03/29 11:32:32;;;;;;;3.58;1.35;;;;;;;15.55;48.07;96683.00;2064051;28;20222;-62
2023/03/29 11:34:02;;;;;;;3.33;1.55;;;;;;;15.67;48.49;96679.56;2065272;28;20297;-63
2023/03/29 11:35:42;;;;;;;4.05;1.80;;;;;;;15.78;48.60;96685.00;2062521;28;20197;-62
2023/03/29 11:36:52;;;;;;;2.95;1.20;;;;;;;15.97;48.61;96684.66;2049485;28;20228;-62
2023/03/29 11:38:04;;;;;;;5.47;1.48;;;;;;;15.88;48.98;96685.25;2052302;28;20732;-62
2023/03/29 11:39:15;;;;;;;3.15;1.15;;;;;;;16.01;48.95;96690.56;2066777;28;20557;-62
2023/03/29 11:40:35;;;;;;;3.22;1.50;;;;;;;15.82;47.63;96683.88;2058806;28;20206;-62
2023/03/29 11:41:41;;;;;;;2.20;1.20;;;;;;;15.44;47.76;96684.53;2067463;28;20202;-62
2023/03/29 11:42:48;;;;;;;4.43;1.30;;;;;;;15.21;47.29;96675.47;2064228;28;20240;-62
2023/03/29 11:44:10;;;;;;;2.63;1.10;;;;;;;14.89;46.55;96673.03;2065747;28;20199;-62
2023/03/29 11:45:21;;;;;;;7.07;1.20;;;;;;;14.65;46.62;96680.63;2063975;28;20324;-61
2023/03/29 11:46:41;;;;;;;4.80;1.27;;;;;;;14.57;46.67;96674.97;2063064;28;20226;-61
2023/03/29 11:47:45;;;;;;;2.83;0.90;;;;;;;14.50;46.13;96664.84;2064169;28;20559;-61
2023/03/29 11:49:03;;;;;;;1.85;1.00;;;;;;;14.59;46.79;96675.72;2064971;28;20198;-61
2023/03/29 11:50:27;;;;;;;2.03;0.80;;;;;;;14.54;46.78;96673.38;2059832;28;20592;-61
2023/03/29 11:51:36;;;;;;;2.33;0.90;;;;;;;14.50;47.76;96664.84;2057911;28;20662;-62
2023/03/29 11:52:52;;;;;;;4.13;1.00;;;;;;;14.29;46.61;96652.97;2061745;28;20214;-62
2023/03/29 11:54:15;;;;;;;3.42;1.00;;;;;;;14.27;47.35;96667.97;2062762;28;20195;-62
2023/03/29 11:55:22;;;;;;;5.53;1.30;;;;;;;14.21;48.17;96675.28;2064295;28;20225;-62
2023/03/29 11:56:39;;;;;;;3.60;1.30;;;;;;;14.10;47.43;96667.19;2062121;28;20197;-62
2023/03/29 11:57:55;;;;;;;2.78;1.15;;;;;;;14.04;48.28;96678.91;2061979;28;20221;-62
2023/03/29 11:59:04;;;;;;;2.17;1.00;;;;;;;14.01;48.53;96659.84;2064247;28;20202;-62
2023/03/29 12:00:18;;;;;;;2.47;1.10;;;;;;;14.11;48.25;96679.38;2064149;28;20225;-63
2023/03/29 12:01:32;;;;;;;5.30;1.02;;;;;;;14.06;48.05;96670.94;2069365;28;21178;-62
2023/03/29 12:02:39;;;;;;;2.63;1.00;;;;;;;14.14;48.64;96678.38;2067691;28;20564;-62
2023/03/29 12:03:45;;;;;;;4.18;1.00;;;;;;;14.11;48.93;96682.00;2063397;28;20878;-62
2023/03/29 12:04:52;;;;;;;2.65;1.20;;;;;;;13.94;48.82;96658.50;2065397;28;20340;-62
2023/03/29 12:06:12;;;;;;;2.45;1.05;;;;;;;14.13;49.85;96679.28;2060402;28;20250;-62
2023/03/29 12:07:20;;;;;;;3.72;1.25;;;;;;;14.06;49.62;96681.44;2060187;28;20212;-63
2023/03/29 12:08:34;;;;;;;2.60;1.10;;;;;;;14.03;49.53;96679.00;2057814;28;20751;-63
2023/03/29 12:09:46;;;;;;;5.32;1.30;;;;;;;13.96;49.12;96675.03;2063985;28;20201;-62
2023/03/29 12:11:07;;;;;;;4.18;1.50;;;;;;;13.94;49.71;96674.25;2059317;28;20225;-62
2023/03/29 12:12:23;;;;;;;2.50;1.00;;;;;;;13.77;49.27;96668.22;2059094;28;20196;-62
2023/03/29 12:13:30;;;;;;;1.73;0.90;;;;;;;13.76;49.13;96678.78;2063419;28;20641;-62
2023/03/29 12:14:55;;;;;;;2.03;1.00;;;;;;;13.75;49.83;96671.84;2062743;28;20565;-62
2023/03/29 12:16:04;;;;;;;2.63;1.20;;;;;;;13.83;49.95;96678.34;2060720;28;20218;-62
2023/03/29 12:17:11;;;;;;;3.05;1.00;;;;;;;14.00;49.56;96674.75;2063565;28;20206;-62
2023/03/29 12:18:21;;;;;;;3.80;1.23;;;;;;;13.93;49.14;96678.69;2060904;28;20628;-62
2023/03/29 12:19:33;;;;;;;2.53;1.00;;;;;;;13.99;49.19;96682.72;2061843;28;20233;-62
2023/03/29 12:20:39;;;;;;;6.95;1.73;;;;;;;13.99;49.50;96680.09;2060668;28;20229;-62
2023/03/29 12:21:42;;;;;;;4.43;0.90;;;;;;;13.97;49.53;96674.94;2064759;28;20225;-62
2023/03/29 12:22:45;;;;;;;7.00;1.42;;;;;;;14.00;49.57;96681.78;2062537;28;20551;-62
2023/03/29 12:23:48;;;;;;;4.47;1.23;;;;;;;13.88;48.96;96680.72;2063011;28;20199;-62
2023/03/29 12:24:52;;;;;;;4.68;1.30;;;;;;;13.94;49.18;96675.13;2061121;28;20202;-62
2023/03/29 12:26:18;;;;;;;6.20;0.90;;;;;;;13.92;49.58;96679.59;2061914;28;20527;-62
2023/03/29 12:27:23;;;;;;;6.20;1.20;;;;;;;13.94;50.12;96683.00;2061743;28;20229;-62
2023/03/29 12:29:08;;;;;;;4.85;1.40;;;;;;;13.90;49.88;96683.25;2063647;28;20213;-61
2023/03/29 12:30:33;;;;;;;5.35;1.27;;;;;;;13.78;49.88;96683.03;2063795;28;20244;-62
2023/03/29 12:32:00;;;;;;;9.65;6.03;;;;;;;13.69;50.25;96683.56;2065696;28;20739;-64
2023/03/29 12:33:10;;;;;;;2.42;0.93;;;;;;;13.54;50.00;96662.47;2063646;28;20226;-64
2023/03/29 12:34:32;;;;;;;3.47;1.60;;;;;;;13.76;51.22;96684.88;2064134;28;20678;-63
2023/03/29 12:36:04;;;;;;;3.05;1.70;;;;;;;13.82;52.04;96687.16;2062067;28;20296;-64
2023/03/29 12:37:29;;;;;;;6.10;1.00;;;;;;;13.89;51.90;96682.44;2063794;28;20554;-64
2023/03/29 12:38:33;;;;;;;6.20;0.93;;;;;;;13.70;50.83;96674.75;2059591;28;20710;-64
2023/03/29 12:39:35;;;;;;;2.58;1.38;;;;;;;13.66;51.43;96681.09;2063821;28;20666;-64
2023/03/29 12:40:43;;;;;;;5.10;1.25;;;;;;;13.88;51.29;96673.69;2061178;28;20856;-64
2023/03/29 12:41:50;;;;;;;8.52;1.20;;;;;;;13.70;51.02;96662.47;2063496;28;20222;-65
2023/03/29 12:42:53;;;;;;;4.03;1.00;;;;;;;13.80;51.96;96670.66;2061806;28;20206;-64
2023/03/29 12:44:00;;;;;;;5.20;1.20;;;;;;;13.78;50.73;96675.16;2061176;28;20237;-64
2023/03/29 12:45:02;;;;;;;3.53;1.10;;;;;;;13.72;50.50;96672.88;2064337;28;20491;-64
2023/03/29 12:46:10;;;;;;;5.45;1.42;;;;;;;13.68;50.42;96669.56;2063401;28;20218;-64
2023/03/29 12:47:20;;;;;;;3.88;0.95;;;;;;;13.76;50.70;96663.88;2063662;28;20285;-65
2023/03/29 12:48:28;;;;;;;3.92;1.25;;;;;;;13.77;50.92;96665.59;2064251;28;20274;-64
2023/03/29 12:49:37;;;;;;;5.50;1.00;;;;;;;13.88;51.09;96672.84;2062276;28;20198;-64
2023/03/29 12:50:50;;;;;;;5.45;1.38;;;;;;;13.80;50.83;96667.19;2060079;28;20223;-64
2023/03/29 12:51:56;;;;;;;7.32;1.27;;;;;;;13.68;51.67;96666.13;2060641;28;20832;-64
2023/03/29 12:53:03;;;;;;;2.20;1.15;;;;;;;13.66;51.79;96667.97;2063253;28;20251;-65
2023/03/29 12:54:20;;;;;;;3.25;1.10;;;;;;;13.49;52.28;96655.81;2066053;28;20294;-64
2023/03/29 12:55:46;;;;;;;1.85;1.10;;;;;;;13.45;53.15;96673.50;2064837;28;20228;-64
2023/03/29 12:56:50;;;;;;;3.60;1.13;;;;;;;13.43;53.56;96679.75;2063887;28;20322;-64
2023/03/29 13:56:30;;;;;;;4.05;1.10;;;;;;;12.47;62.51;96654.25;2082859;28;20558;-58
2023/03/29 13:57:41;;;;;;;7.90;1.73;;;;;;;12.50;62.03;96659.31;2080407;28;20217;-58
2023/03/29 13:58:46;;;;;;;3.72;1.80;;;;;;;12.57;61.70;96655.47;2081918;28;20223;-58
2023/03/29 14:00:16;;;;;;;2.38;1.10;;;;;;;12.69;62.79;96658.34;2081260;28;20197;-59
2023/03/29 14:01:30;;;;;;;1.90;1.05;;;;;;;12.81;62.35;96652.47;2073797;28;20225;-61
2023/03/29 14:02:31;;;;;;;5.25;1.30;;;;;;;12.90;61.64;96651.97;2073530;28;20198;-60
2023/03/29 14:03:43;;;;;;;2.03;0.90;;;;;;;12.94;60.14;96654.41;2073782;28;20201;-59
2023/03/29 14:04:48;;;;;;;4.80;1.25;;;;;;;12.99;60.08;96636.66;2077221;28;20197;-61
2023/03/29 14:05:59;;;;;;;3.63;1.20;;;;;;;13.12;59.39;96639.47;2069856;28;20736;-60
2023/03/29 14:07:01;;;;;;;11.02;1.70;;;;;;;13.27;60.10;96645.63;2074736;28;20189;-61
2023/03/29 14:08:28;;;;;;;4.35;1.50;;;;;;;13.30;59.66;96638.44;2072806;28;20575;-60
2023/03/29 14:09:33;;;;;;;3.05;0.90;;;;;;;13.41;58.67;96643.13;2071032;28;20205;-61
2023/03/29 14:10:40;;;;;;;6.57;1.65;;;;;;;13.60;58.48;96644.69;2071181;28;20221;-60
2023/03/29 14:11:45;;;;;;;6.43;1.77;;;;;;;13.60;57.45;96642.94;2071342;28;20208;-61
2023/03/29 14:12:48;;;;;;;6.72;1.00;;;;;;;13.55;56.54;96648.44;2075421;28;20712;-61
2023/03/29 14:13:55;;;;;;;5.35;1.60;;;;;;;13.70;57.04;96628.34;2073948;28;20825;-61
2023/03/29 14:15:00;;;;;;;2.65;1.10;;;;;;;13.85;56.70;96621.38;2072536;28;20327;-60
2023/03/29 14:16:10;;;;;;;2.40;1.00;;;;;;;14.11;56.04;96636.53;2079961;28;20928;-60
2023/03/29 14:17:18;;;;;;;2.78;1.02;;;;;;;14.24;56.65;96640.13;2082311;28;20288;-60
2023/03/29 14:18:22;;;;;;;3.80;1.45;;;;;;;14.19;56.13;96632.53;2081812;28;20197;-60
2023/03/29 14:19:30;;;;;;;4.80;1.67;;;;;;;14.19;55.68;96634.28;2080008;28;20204;-61
2023/03/29 14:20:32;;;;;;;6.25;1.63;;;;;;;14.23;55.61;96627.09;2080342;28;20227;-60
2023/03/29 14:21:34;;;;;;;3.85;1.23;;;;;;;14.23;55.36;96621.84;2081992;28;20196;-60
2023/03/29 14:22:36;;;;;;;2.00;1.10;;;;;;;14.15;55.08;96624.91;2081696;28;20696;-60
2023/03/29 14:23:40;;;;;;;3.88;1.30;;;;;;;14.03;55.07;96616.00;2081183;28;20197;-61
2023/03/29 14:24:53;;;;;;;2.45;1.20;;;;;;;14.13;54.94;96622.38;2081094;28;20208;-60
2023/03/29 14:26:04;;;;;;;8.52;1.75;;;;;;;14.04;55.22;96586.16;2080120;28;20225;-60
2023/03/29 14:27:09;;;;;;;6.93;1.45;;;;;;;14.43;54.53;96620.63;2080639;28;20200;-61
2023/03/29 14:28:23;;;;;;;7.30;1.50;;;;;;;14.76;54.04;96619.53;2080828;28;20619;-60
2023/03/29 14:29:29;;;;;;;3.08;1.58;;;;;;;14.89;54.20;96623.06;2081271;28;20294;-60
2023/03/29 14:30:31;;;;;;;9.40;1.95;;;;;;;15.24;53.29;96613.94;2079717;28;20235;-59
2023/03/29 14:31:35;;;;;;;3.80;1.30;;;;;;;15.28;52.39;96623.31;2081307;28;20203;-60
2023/03/29 14:32:38;;;;;;;4.03;1.33;;;;;;;15.31;52.80;96617.84;2082121;28;20558;-61
2023/03/29 14:33:40;;;;;;;2.95;1.60;;;;;;;15.31;52.89;96620.47;2086082;28;20336;-61
2023/03/29 14:34:42;;;;;;;8.00;1.60;;;;;;;15.18;53.78;96623.91;2085894;28;20227;-61
2023/03/29 14:35:44;;;;;;;3.15;1.30;;;;;;;15.05;53.59;96616.88;2080307;28;20224;-61
2023/03/29 14:36:47;;;;;;;3.30;1.40;;;;;;;15.08;54.46;96609.63;2080281;28;20201;-61
2023/03/29 14:37:50;;;;;;;4.20;1.38;;;;;;;14.95;54.03;96606.91;2085831;28;20286;-61
2023/03/29 14:38:59;;;;;;;3.35;1.15;;;;;;;14.73;54.11;96611.81;2078076;28;20201;-62
2023/03/29 14:40:00;;;;;;;3.33;1.48;;;;;;;14.63;54.92;96608.91;2082468;28;20219;-61
2023/03/29 14:41:02;;;;;;;4.53;1.10;;;;;;;14.73;54.81;96611.81;2082900;28;20220;-61
2023/03/29 14:42:13;;;;;;;3.67;1.45;;;;;;;14.77;54.48;96608.94;2080309;28;20204;-61
2023/03/29 14:43:19;;;;;;;4.05;1.50;;;;;;;14.77;54.61;96614.19;2081052;28;20557;-61
2023/03/29 14:44:23;;;;;;;6.35;1.50;;;;;;;14.76;54.40;96611.66;2079904;28;20706;-61
2023/03/29 14:45:25;;;;;;;4.50;1.50;;;;;;;14.78;54.25;96602.72;2080743;28;20867;-61
2023/03/29 14:46:26;;;;;;;5.63;1.58;;;;;;;14.86;54.63;96603.09;2081615;28;20543;-60
2023/03/29 14:47:30;;;;;;;4.68;1.23;;;;;;;15.02;54.56;96604.78;2082458;28;20275;-61
2023/03/29 14:48:34;;;;;;;2.10;1.00;;;;;;;15.10;53.99;96607.75;2081540;28;20895;-61
2023/03/29 14:49:36;;;;;;;3.25;1.90;;;;;;;14.92;54.00;96598.38;2081952;28;20205;-61
2023/03/29 14:50:38;;;;;;;2.45;1.25;;;;;;;14.92;54.50;96604.50;2080366;28;20224;-61
2023/03/29 14:51:40;;;;;;;5.68;1.55;;;;;;;14.84;54.49;96599.72;2081369;28;20576;-61
2023/03/29 14:52:42;;;;;;;5.80;1.40;;;;;;;14.89;54.56;96594.16;2081475;28;20294;-61
2023/03/29 14:53:48;;;;;;;7.57;1.30;;;;;;;14.82;54.71;96593.72;2079629;28;20255;-61
2023/03/29 14:54:52;;;;;;;4.05;1.27;;;;;;;14.88;55.08;96596.88;2079828;28;20270;-61
2023/03/29 14:55:55;;;;;;;3.10;1.15;;;;;;;14.72;55.05;96597.84;2082632;28;20264;-61
2023/03/29 14:56:58;;;;;;;3.97;1.48;;;;;;;14.66;55.56;96598.22;2081660;28;20197;-61
2023/03/29 14:58:00;;;;;;;4.28;1.10;;;;;;;14.72;55.36;96586.50;2081906;28;20189;-61
2023/03/29 14:59:03;;;;;;;2.28;1.23;;;;;;;14.75;54.66;96591.56;2081438;28;20365;-60
2023/03/29 15:00:23;;;;;;;4.47;1.13;;;;;;;14.76;54.62;96586.19;2081911;28;20291;-60
2023/03/29 15:01:25;;;;;;;6.95;1.33;;;;;;;14.79;54.71;96582.53;2081077;28;20231;-61
2023/03/29 15:02:30;;;;;;;4.15;1.27;;;;;;;14.87;54.02;96590.81;2080629;28;20239;-61
2023/03/29 15:03:42;;;;;;;2.75;1.10;;;;;;;14.91;54.82;96586.19;2080506;28;20295;-61
2023/03/29 15:04:57;;;;;;;5.53;1.27;;;;;;;14.93;54.19;96579.03;2080349;28;20197;-61
2023/03/29 15:06:03;;;;;;;4.43;1.38;;;;;;;15.22;54.14;96579.81;2081193;28;20217;-60
2023/03/29 15:07:05;;;;;;;4.75;1.55;;;;;;;15.61;53.08;96579.94;2074288;28;20202;-61
2023/03/29 15:08:13;;;;;;;3.55;1.20;;;;;;;15.52;52.95;96576.13;2077524;28;20212;-60
2023/03/29 15:09:19;;;;;;;2.30;1.00;;;;;;;15.54;52.74;96571.63;2075207;28;20258;-61
2023/03/29 15:10:21;;;;;;;5.82;1.25;;;;;;;15.59;52.75;96576.56;2075075;28;20201;-61
2023/03/29 15:11:26;;;;;;;7.78;1.13;;;;;;;15.27;52.23;96538.25;2077766;28;20216;-61
2023/03/29 15:12:29;;;;;;;6.13;1.35;;;;;;;15.48;52.16;96570.22;2077147;28;20240;-61
2023/03/29 15:13:31;;;;;;;6.28;1.23;;;;;;;15.49;51.93;96576.31;2075172;28;20236;-61
2023/03/29 15:14:35;;;;;;;2.03;0.90;;;;;;;15.52;51.12;96569.06;2076528;28;20229;-61
2023/03/29 15:15:37;;;;;;;3.80;1.10;;;;;;;15.45;51.53;96562.56;2075303;28;20220;-60
2023/03/29 15:16:42;;;;;;;4.03;1.25;;;;;;;15.55;51.31;96569.81;2078460;28;20291;-62
2023/03/29 15:17:45;;;;;;;3.17;1.02;;;;;;;15.62;51.71;96566.69;2067030;28;20201;-62
2023/03/29 15:18:52;;;;;;;13.25;1.80;;;;;;;15.63;51.84;96565.75;2075234;28;20205;-61
2023/03/29 15:19:59;;;;;;;5.30;1.35;;;;;;;15.56;51.10;96569.72;2076421;28;20198;-60
2023/03/29 15:21:01;;;;;;;6.97;1.80;;;;;;;15.42;51.51;96556.63;2075891;28;20270;-61
2023/03/29 15:22:08;;;;;;;4.30;1.25;;;;;;;15.39;51.85;96568.22;2076681;28;20227;-61
2023/03/29 15:23:13;;;;;;;3.78;1.50;;;;;;;15.23;52.35;96565.72;2076899;28;20205;-61
2023/03/29 15:24:27;;;;;;;5.13;1.30;;;;;;;15.29;52.74;96564.50;2075871;28;20208;-61
2023/03/29 15:25:36;;;;;;;4.57;1.50;;;;;;;15.31;52.10;96560.81;2074903;28;20580;-62
2023/03/29 15:26:37;;;;;;;4.20;1.30;;;;;;;15.36;52.24;96563.13;2074692;28;20213;-61
2023/03/29 15:27:41;;;;;;;4.95;1.30;;;;;;;15.39;52.04;96557.69;2076106;28;20208;-61
2023/03/29 15:28:54;;;;;;;4.10;1.52;;;;;;;15.32;51.69;96557.22;2075744;28;20208;-61
2023/03/29 15:30:01;;;;;;;4.82;1.58;;;;;;;15.27;51.90;96543.53;2078247;28;20535;-61
2023/03/29 15:31:18;;;;;;;4.00;1.50;;;;;;;15.34;52.12;96552.72;2075189;28;20245;-61
2023/03/29 15:32:21;;;;;;;3.20;1.40;;;;;;;15.45;51.98;96545.91;2076183;28;20197;-61
2023/03/29 15:33:24;;;;;;;3.47;1.40;;;;;;;15.76;51.77;96549.16;2075743;28;20243;-61
2023/03/29 15:34:31;;;;;;;4.65;1.30;;;;;;;16.05;51.05;96556.88;2076037;28;20209;-60
2023/03/29 15:35:33;;;;;;;4.75;1.50;;;;;;;16.09;51.09;96546.03;2072757;28;20927;-60
2023/03/29 15:36:40;;;;;;;8.25;1.40;;;;;;;16.16;50.57;96547.31;2073919;28;20679;-61
2023/03/29 15:37:42;;;;;;;5.22;1.48;;;;;;;16.32;50.46;96541.81;2074815;28;20190;-61
2023/03/29 15:38:48;;;;;;;7.35;1.40;;;;;;;16.47;50.24;96536.44;2075602;28;20213;-60
2023/03/29 15:39:50;;;;;;;4.80;1.55;;;;;;;16.33;49.83;96545.28;2077514;28;20190;-64
2023/03/29 15:40:51;;;;;;;4.32;1.63;;;;;;;16.27;50.13;96536.00;2073840;28;20268;-63
2023/03/29 15:41:55;;;;;;;4.75;1.38;;;;;;;16.12;50.40;96529.19;2075932;28;20201;-64
2023/03/29 15:42:57;;;;;;;3.28;1.33;;;;;;;16.15;50.55;96539.47;2074306;28;20198;-64